createdAt,value
2022-11-28T00:00:35.782Z,9.18
2022-11-28T00:03:22.716Z,9.00
2022-11-28T00:06:09.339Z,8.43
2022-11-28T00:08:57.384Z,8.75
2022-11-28T00:11:44.869Z,8.00
2022-11-28T00:14:30.959Z,7.88
2022-11-28T00:17:16.825Z,8.13
2022-11-28T00:20:02.786Z,8.60
2022-11-28T00:22:49.334Z,8.20
2022-11-28T00:25:35.310Z,7.82
2022-11-28T00:28:21.281Z,8.02
2022-11-28T00:31:12.739Z,7.63
2022-11-28T00:33:58.988Z,8.82
2022-11-28T00:36:46.449Z,9.35
2022-11-28T00:39:32.386Z,8.55
2022-11-28T00:42:21.139Z,9.13
2022-11-28T00:45:07.433Z,8.23
2022-11-28T00:47:53.475Z,7.68
2022-11-28T00:50:39.255Z,7.72
2022-11-28T00:53:25.095Z,8.75
2022-11-28T00:56:12.971Z,8.05
2022-11-28T00:58:59.707Z,8.20
2022-11-28T01:01:45.888Z,8.43
2022-11-28T01:04:32.317Z,7.90
2022-11-28T01:07:18.277Z,8.05
2022-11-28T01:10:04.533Z,8.23
2022-11-28T01:12:50.932Z,8.55
2022-11-28T01:15:37.457Z,8.68
2022-11-28T01:18:23.643Z,8.55
2022-11-28T01:21:09.757Z,8.20
2022-11-28T01:23:55.909Z,9.10
2022-11-28T01:26:42.755Z,9.00
2022-11-28T01:29:28.637Z,8.98
2022-11-28T01:32:15.178Z,9.27
2022-11-28T01:35:01.189Z,8.50
2022-11-28T01:37:47.002Z,8.93
2022-11-28T01:40:32.969Z,8.52
2022-11-28T01:43:19.286Z,8.52
2022-11-28T01:46:06.149Z,8.43
2022-11-28T01:48:52.777Z,8.45
2022-11-28T01:51:41.878Z,9.45
2022-11-28T01:54:28.723Z,9.07
2022-11-28T01:57:20.763Z,9.38
2022-11-28T02:00:15.574Z,8.80
2022-11-28T02:03:06.990Z,9.43
2022-11-28T02:05:53.285Z,10.15
2022-11-28T02:08:39.334Z,10.27
2022-11-28T02:11:31.227Z,9.63
2022-11-28T02:14:35.020Z,14.40
2022-11-28T02:17:42.120Z,15.88
2022-11-28T02:20:46.536Z,20.02
2022-11-28T02:23:57.488Z,24.92
2022-11-28T02:27:06.375Z,26.63
2022-11-28T02:30:21.361Z,26.35
2022-11-28T02:33:12.757Z,27.80
2022-11-28T02:36:20.478Z,25.17
2022-11-28T02:39:12.525Z,22.98
2022-11-28T02:42:09.895Z,22.27
2022-11-28T02:45:00.373Z,22.67
2022-11-28T02:47:50.526Z,23.20
2022-11-28T02:51:07.929Z,23.45
2022-11-28T02:53:55.594Z,25.27
2022-11-28T02:56:52.932Z,24.75
2022-11-28T02:59:38.962Z,25.80
2022-11-28T03:02:30.441Z,25.30
2022-11-28T03:05:24.833Z,19.53
2022-11-28T03:08:16.862Z,24.30
2022-11-28T03:11:27.863Z,22.50
2022-11-28T03:14:22.448Z,19.35
2022-11-28T03:17:36.821Z,17.92
2022-11-28T03:20:28.335Z,14.05
2022-11-28T03:23:18.035Z,12.90
2022-11-28T03:26:14.902Z,10.95
2022-11-28T03:29:08.741Z,11.75
2022-11-28T03:32:01.678Z,11.30
2022-11-28T03:37:36.864Z,10.65
2022-11-28T03:40:26.100Z,10.20
2022-11-28T03:43:19.339Z,11.50
2022-11-28T03:48:55.577Z,10.30
2022-11-28T03:51:46.849Z,10.80
2022-11-28T03:54:51.840Z,10.38
2022-11-28T03:57:45.506Z,10.45
2022-11-28T04:00:33.848Z,11.70
2022-11-28T04:03:30.100Z,10.65
2022-11-28T04:06:21.087Z,11.65
2022-11-28T04:09:14.527Z,11.20
2022-11-28T04:12:07.732Z,10.68
2022-11-28T04:14:57.542Z,10.90
2022-11-28T04:17:58.378Z,10.05
2022-11-28T04:21:03.443Z,10.38
2022-11-28T04:23:50.912Z,11.05
2022-11-28T04:26:40.885Z,11.85
2022-11-28T04:29:29.197Z,15.38
2022-11-28T04:32:19.104Z,13.23
2022-11-28T04:35:10.220Z,11.80
2022-11-28T04:37:57.075Z,12.45
2022-11-28T04:40:56.691Z,15.18
2022-11-28T04:43:48.284Z,28.63
2022-11-28T04:46:39.514Z,29.70
2022-11-28T04:49:27.074Z,31.48
2022-11-28T04:52:22.072Z,27.48
2022-11-28T04:55:31.415Z,26.38
2022-11-28T04:58:22.393Z,24.90
2022-11-28T05:01:10.608Z,24.27
2022-11-28T05:03:56.805Z,20.85
2022-11-28T05:06:43.121Z,16.33
2022-11-28T05:09:29.156Z,13.80
2022-11-28T05:12:15.039Z,14.52
2022-11-28T05:15:01.259Z,13.45
2022-11-28T05:17:47.215Z,13.85
2022-11-28T05:20:33.268Z,12.88
2022-11-28T05:23:19.107Z,13.55
2022-11-28T05:26:10.199Z,12.70
2022-11-28T05:28:57.068Z,13.43
2022-11-28T05:31:43.556Z,11.65
2022-11-28T05:34:31.142Z,12.90
2022-11-28T05:37:17.379Z,13.02
2022-11-28T05:40:04.131Z,13.27
2022-11-28T05:42:50.418Z,13.07
2022-11-28T05:45:40.956Z,13.23
2022-11-28T05:48:26.804Z,12.38
2022-11-28T05:51:13.035Z,13.05
2022-11-28T05:53:59.123Z,14.68
2022-11-28T05:56:45.029Z,12.95
2022-11-28T05:59:31.032Z,13.85
2022-11-28T06:02:17.022Z,12.63
2022-11-28T06:05:20.969Z,13.02
2022-11-28T06:08:09.709Z,13.27
2022-11-28T06:10:57.774Z,13.65
2022-11-28T06:13:45.007Z,12.77
2022-11-28T06:16:31.779Z,13.52
2022-11-28T06:19:17.935Z,13.85
2022-11-28T06:22:04.483Z,13.35
2022-11-28T06:24:50.407Z,13.52
2022-11-28T06:27:36.318Z,13.40
2022-11-28T06:30:22.336Z,13.80
2022-11-28T06:33:08.337Z,14.95
2022-11-28T06:36:05.387Z,14.52
2022-11-28T06:38:51.630Z,13.02
2022-11-28T06:41:38.049Z,14.52
2022-11-28T06:44:24.254Z,12.43
2022-11-28T06:47:10.224Z,13.05
2022-11-28T06:49:56.239Z,12.43
2022-11-28T06:52:42.510Z,14.18
2022-11-28T06:55:29.859Z,12.93
2022-11-28T06:58:15.726Z,13.23
2022-11-28T07:01:17.528Z,13.27
2022-11-28T07:04:03.333Z,14.00
2022-11-28T07:06:49.524Z,11.95
2022-11-28T07:09:35.610Z,13.23
2022-11-28T07:12:21.355Z,13.52
2022-11-28T07:15:08.264Z,13.75
2022-11-28T07:17:54.467Z,13.18
2022-11-28T07:20:40.592Z,13.45
2022-11-28T07:23:26.821Z,13.52
2022-11-28T07:26:16.418Z,13.15
2022-11-28T07:29:02.340Z,12.73
2022-11-28T07:31:48.378Z,13.32
2022-11-28T07:34:34.911Z,13.95
2022-11-28T07:37:20.973Z,13.77
2022-11-28T07:40:07.549Z,13.50
2022-11-28T07:42:53.681Z,14.10
2022-11-28T07:45:59.441Z,14.02
2022-11-28T07:48:48.206Z,12.55
2022-11-28T07:51:34.844Z,13.13
2022-11-28T07:54:20.749Z,13.25
2022-11-28T07:57:14.221Z,14.10
2022-11-28T08:00:00.428Z,12.85
2022-11-28T08:02:46.427Z,13.70
2022-11-28T08:05:32.485Z,13.35
2022-11-28T08:08:19.608Z,13.85
2022-11-28T08:11:07.471Z,14.40
2022-11-28T08:13:56.401Z,13.57
2022-11-28T08:16:47.204Z,13.63
2022-11-28T08:19:35.391Z,15.00
2022-11-28T08:22:21.524Z,15.13
2022-11-28T08:25:07.688Z,14.18
2022-11-28T08:27:53.772Z,15.88
2022-11-28T08:30:39.832Z,15.75
2022-11-28T08:33:26.385Z,17.67
2022-11-28T08:36:14.722Z,17.90
2022-11-28T08:39:24.111Z,20.75
2022-11-28T08:42:07.594Z,19.27
2022-11-28T08:44:53.650Z,21.23
2022-11-28T08:47:39.459Z,24.60
2022-11-28T08:50:25.523Z,23.75
2022-11-28T08:53:11.391Z,26.17
2022-11-28T08:55:57.278Z,26.08
2022-11-28T08:58:43.684Z,25.75
2022-11-28T09:01:30.136Z,20.95
2022-11-28T09:04:16.346Z,21.98
2022-11-28T09:07:02.341Z,20.10
2022-11-28T09:09:48.768Z,20.13
2022-11-28T09:12:35.223Z,20.00
2022-11-28T09:15:21.325Z,20.60
2022-11-28T09:18:07.818Z,20.25
2022-11-28T09:21:02.134Z,19.67
2022-11-28T09:23:48.337Z,20.40
2022-11-28T09:26:34.502Z,18.40
2022-11-28T09:29:20.606Z,20.50
2022-11-28T09:32:06.783Z,18.55
2022-11-28T09:34:52.816Z,19.15
2022-11-28T09:37:38.636Z,21.15
2022-11-28T09:40:43.206Z,19.63
2022-11-28T09:43:35.980Z,19.77
2022-11-28T09:49:36.744Z,18.80
2022-11-28T09:52:32.595Z,18.48
2022-11-28T09:55:36.628Z,18.52
2022-11-28T09:58:32.052Z,18.15
2022-11-28T10:01:21.385Z,17.95
2022-11-28T10:04:26.279Z,16.90
2022-11-28T10:07:24.554Z,18.27
2022-11-28T10:10:42.364Z,17.85
2022-11-28T10:14:07.051Z,18.30
2022-11-28T10:16:57.323Z,17.83
2022-11-28T10:19:55.403Z,19.05
2022-11-28T10:22:56.218Z,17.02
2022-11-28T10:25:46.504Z,16.77
2022-11-28T10:28:35.448Z,17.40
2022-11-28T10:31:37.082Z,16.60
2022-11-28T10:34:42.726Z,15.23
2022-11-28T10:37:31.600Z,12.05
2022-11-28T10:40:36.369Z,12.45
2022-11-28T10:43:31.324Z,11.75
2022-11-28T10:46:21.822Z,9.32
2022-11-28T10:49:26.096Z,8.93
2022-11-28T10:52:47.465Z,9.68
2022-11-28T10:55:56.312Z,11.30
2022-11-28T10:58:59.138Z,9.57
2022-11-28T11:01:49.885Z,9.52
2022-11-28T11:04:37.336Z,8.60
2022-11-28T11:07:29.734Z,8.50
2022-11-28T11:10:24.580Z,12.65
2022-11-28T11:13:17.527Z,8.93
2022-11-28T11:16:10.285Z,9.30
2022-11-28T11:18:56.361Z,7.32
2022-11-28T11:21:58.584Z,6.97
2022-11-28T11:24:45.108Z,7.57
2022-11-28T11:27:31.574Z,8.25
2022-11-28T11:30:26.004Z,8.18
2022-11-28T11:33:17.466Z,6.72
2022-11-28T11:36:05.672Z,6.65
2022-11-28T11:38:52.148Z,7.13
2022-11-28T11:41:43.464Z,8.40
2022-11-28T11:44:34.324Z,7.93
2022-11-28T11:47:20.474Z,8.15
2022-11-28T11:50:06.998Z,6.40
2022-11-28T11:53:12.807Z,8.07
2022-11-28T11:56:01.614Z,7.43
2022-11-28T11:58:51.002Z,8.10
2022-11-28T12:01:38.016Z,7.53
2022-11-28T12:04:45.846Z,9.77
2022-11-28T12:07:56.966Z,7.65
2022-11-28T12:10:46.806Z,8.70
2022-11-28T12:13:33.293Z,8.20
2022-11-28T12:16:34.321Z,9.15
2022-11-28T12:19:38.714Z,8.10
2022-11-28T12:22:55.668Z,7.55
2022-11-28T12:25:50.627Z,8.80
2022-11-28T12:28:55.090Z,10.60
2022-11-28T12:32:00.106Z,10.18
2022-11-28T12:35:04.895Z,11.63
2022-11-28T12:38:11.149Z,8.05
2022-11-28T12:41:32.948Z,8.30
2022-11-28T12:44:43.294Z,7.95
2022-11-28T12:48:10.398Z,8.02
2022-11-28T12:51:25.788Z,8.18
2022-11-28T12:54:41.029Z,7.50
2022-11-28T12:57:30.674Z,6.80
2022-11-28T13:00:22.849Z,7.78
2022-11-28T13:03:22.738Z,8.52
2022-11-28T13:06:28.549Z,9.88
2022-11-28T13:09:34.422Z,12.65
2022-11-28T13:12:25.051Z,14.88
2022-11-28T13:15:21.080Z,12.82
2022-11-28T13:18:44.523Z,13.55
2022-11-28T13:25:00.859Z,10.00
2022-11-28T13:28:02.192Z,8.90
2022-11-28T13:30:58.096Z,9.07
2022-11-28T13:34:04.095Z,8.90
2022-11-28T13:40:26.015Z,8.88
2022-11-28T13:43:22.368Z,9.82
2022-11-28T13:46:09.548Z,10.02
2022-11-28T13:49:15.145Z,7.78
2022-11-28T13:52:21.656Z,7.78
2022-11-28T13:55:36.511Z,7.40
2022-11-28T13:58:35.195Z,7.60
2022-11-28T14:01:23.686Z,8.38
2022-11-28T14:04:12.491Z,7.38
2022-11-28T14:07:03.701Z,8.38
2022-11-28T14:10:28.101Z,8.15
2022-11-28T14:13:28.036Z,6.97
2022-11-28T14:16:23.168Z,7.40
2022-11-28T14:19:40.383Z,8.65
2022-11-28T14:23:04.951Z,7.40
2022-11-28T14:25:53.914Z,7.18
2022-11-28T14:28:44.583Z,7.30
2022-11-28T14:31:40.369Z,8.45
2022-11-28T14:34:36.295Z,8.85
2022-11-28T14:37:22.162Z,8.85
2022-11-28T14:40:47.891Z,7.38
2022-11-28T14:43:54.402Z,8.68
2022-11-28T14:47:07.248Z,7.32
2022-11-28T14:50:05.527Z,7.55
2022-11-28T14:53:32.022Z,7.88
2022-11-28T14:56:23.021Z,9.15
2022-11-28T14:59:10.258Z,11.68
2022-11-28T15:02:12.516Z,11.77
2022-11-28T15:05:00.262Z,12.00
2022-11-28T15:08:19.991Z,14.55
2022-11-28T15:11:23.972Z,14.80
2022-11-28T15:14:10.198Z,20.05
2022-11-28T15:17:01.524Z,23.55
2022-11-28T15:19:49.101Z,24.45
2022-11-28T15:22:43.742Z,21.73
2022-11-28T15:25:35.692Z,20.98
2022-11-28T15:28:23.866Z,19.88
2022-11-28T15:31:21.561Z,24.27
2022-11-28T15:34:10.091Z,21.70
2022-11-28T15:37:03.769Z,20.42
2022-11-28T15:39:50.299Z,21.27
2022-11-28T15:42:38.921Z,22.00
2022-11-28T15:45:28.370Z,22.25
2022-11-28T15:48:40.472Z,23.33
2022-11-28T15:51:32.969Z,24.95
2022-11-28T15:54:38.372Z,28.03
2022-11-28T15:57:27.247Z,28.33
2022-11-28T16:00:19.072Z,28.60
2022-11-28T16:03:05.776Z,25.03
2022-11-28T16:05:52.727Z,23.95
2022-11-28T16:08:48.445Z,21.58
2022-11-28T16:11:36.110Z,21.60
2022-11-28T16:14:28.511Z,21.40
2022-11-28T16:17:25.235Z,18.48
2022-11-28T16:20:22.347Z,17.00
2022-11-28T16:23:10.619Z,18.88
2022-11-28T16:26:01.823Z,19.08
2022-11-28T16:29:05.996Z,20.15
2022-11-28T16:31:52.283Z,17.95
2022-11-28T16:34:46.811Z,17.25
2022-11-28T16:37:33.382Z,16.10
2022-11-28T16:40:23.703Z,15.00
2022-11-28T16:43:32.530Z,20.85
2022-11-28T16:46:24.113Z,18.73
2022-11-28T16:49:29.873Z,19.30
2022-11-28T16:52:22.366Z,22.55
2022-11-28T16:55:26.998Z,27.17
2022-11-28T16:58:15.833Z,26.10
2022-11-28T17:01:02.522Z,24.40
2022-11-28T17:03:51.510Z,22.25
2022-11-28T17:06:37.994Z,20.58
2022-11-28T17:09:24.217Z,26.75
2022-11-28T17:12:20.012Z,28.05
2022-11-28T17:15:10.267Z,25.20
2022-11-28T17:17:57.365Z,25.88
2022-11-28T17:20:43.305Z,24.77
2022-11-28T17:23:29.733Z,24.80
2022-11-28T17:26:15.733Z,23.98
2022-11-28T17:29:01.914Z,22.58
2022-11-28T17:31:48.908Z,22.15
2022-11-28T17:34:35.381Z,23.48
2022-11-28T17:37:21.448Z,18.73
2022-11-28T17:40:26.576Z,16.50
2022-11-28T17:43:21.111Z,15.75
2022-11-28T17:46:07.603Z,16.52
2022-11-28T17:48:54.582Z,18.95
2022-11-28T17:51:40.762Z,18.23
2022-11-28T17:54:27.417Z,16.00
2022-11-28T17:57:13.746Z,14.50
2022-11-28T18:00:00.826Z,15.00
2022-11-28T18:02:47.102Z,16.60
2022-11-28T18:05:37.077Z,16.77
2022-11-28T18:08:23.235Z,16.95
2022-11-28T18:11:10.947Z,15.63
2022-11-28T18:13:58.508Z,17.33
2022-11-28T18:16:44.644Z,18.70
2022-11-28T18:19:31.488Z,16.60
2022-11-28T18:22:17.324Z,18.40
2022-11-28T18:25:03.982Z,19.95
2022-11-28T18:27:50.408Z,19.40
2022-11-28T18:30:44.191Z,17.67
2022-11-28T18:33:30.419Z,16.17
2022-11-28T18:36:25.111Z,15.48
2022-11-28T18:39:13.763Z,17.05
2022-11-28T18:42:00.246Z,17.95
2022-11-28T18:44:46.357Z,18.35
2022-11-28T18:47:32.353Z,18.27
2022-11-28T18:50:18.380Z,17.60
2022-11-28T18:53:04.232Z,17.27
2022-11-28T18:56:00.165Z,19.00
2022-11-28T18:58:48.554Z,18.60
2022-11-28T19:01:35.571Z,21.45
2022-11-28T19:04:23.605Z,21.02
2022-11-28T19:07:10.571Z,19.80
2022-11-28T19:09:56.469Z,21.50
2022-11-28T19:12:43.905Z,20.10
2022-11-28T19:15:29.645Z,18.10
2022-11-28T19:18:15.760Z,18.20
2022-11-28T19:21:05.285Z,17.35
2022-11-28T19:23:51.926Z,17.95
2022-11-28T19:26:38.930Z,18.88
2022-11-28T19:29:25.101Z,19.05
2022-11-28T19:32:12.634Z,20.15
2022-11-28T19:34:59.260Z,19.83
2022-11-28T19:37:45.825Z,20.45
2022-11-28T19:40:31.790Z,19.98
2022-11-28T19:43:18.163Z,19.95
2022-11-28T19:46:04.656Z,20.65
2022-11-28T19:48:51.895Z,19.58
2022-11-28T19:51:38.330Z,17.17
2022-11-28T19:54:24.428Z,14.60
2022-11-28T19:57:13.179Z,15.65
2022-11-28T19:59:59.690Z,14.13
2022-11-28T20:02:45.722Z,14.10
2022-11-28T20:05:33.176Z,15.32
2022-11-28T20:08:19.487Z,14.88
2022-11-28T20:11:13.831Z,17.88
2022-11-28T20:14:15.395Z,19.50
2022-11-28T20:17:01.863Z,21.10
2022-11-28T20:19:48.154Z,26.08
2022-11-28T20:22:35.263Z,23.27
2022-11-28T20:25:21.382Z,25.05
2022-11-28T20:28:09.720Z,34.42
2022-11-28T20:30:56.620Z,34.67
2022-11-28T20:33:42.684Z,36.88
2022-11-28T20:36:31.493Z,30.92
2022-11-28T20:39:17.696Z,32.05
2022-11-28T20:42:04.387Z,28.98
2022-11-28T20:44:50.571Z,26.77
2022-11-28T20:47:36.588Z,25.50
2022-11-28T20:50:22.390Z,21.92
2022-11-28T20:53:08.229Z,20.58
2022-11-28T20:56:01.858Z,19.52
2022-11-28T20:58:48.394Z,19.40
2022-11-28T21:01:36.900Z,19.45
2022-11-28T21:04:22.775Z,18.83
2022-11-28T21:07:08.977Z,18.48
2022-11-28T21:09:59.868Z,20.25
2022-11-28T21:12:46.085Z,20.10
2022-11-28T21:15:32.172Z,21.83
2022-11-28T21:18:18.363Z,21.25
2022-11-28T21:21:16.254Z,22.33
2022-11-28T21:24:05.344Z,25.92
2022-11-28T21:26:54.500Z,26.17
2022-11-28T21:29:40.688Z,27.02
2022-11-28T21:32:27.017Z,29.25
2022-11-28T21:35:13.275Z,30.02
2022-11-28T21:37:59.112Z,28.52
2022-11-28T21:40:52.264Z,29.35
2022-11-28T21:43:39.442Z,32.00
2022-11-28T21:46:25.703Z,29.13
2022-11-28T21:49:11.652Z,29.65
2022-11-28T21:51:58.897Z,31.38
2022-11-28T21:54:44.785Z,30.38
2022-11-28T21:57:31.220Z,31.15
2022-11-28T22:00:45.612Z,35.20
2022-11-28T22:03:23.971Z,28.70
2022-11-28T22:06:21.713Z,27.90
2022-11-28T22:09:09.821Z,25.45
2022-11-28T22:11:57.611Z,27.45
2022-11-28T22:14:43.656Z,25.83
2022-11-28T22:17:31.612Z,31.50
2022-11-28T22:20:17.595Z,28.40
2022-11-28T22:23:03.593Z,29.35
2022-11-28T22:25:53.297Z,27.05
2022-11-28T22:28:41.519Z,31.05
2022-11-28T22:31:28.416Z,32.67
2022-11-28T22:34:14.972Z,25.20
2022-11-28T22:37:00.711Z,24.38
2022-11-28T22:39:46.657Z,27.75
2022-11-28T22:42:32.512Z,26.65
2022-11-28T22:45:18.451Z,29.33
2022-11-28T22:48:04.979Z,25.50
2022-11-28T22:50:51.272Z,25.55
2022-11-28T22:53:37.315Z,23.02
2022-11-28T22:56:23.697Z,21.70
2022-11-28T22:59:14.313Z,20.50
2022-11-28T23:02:01.391Z,19.92
2022-11-28T23:04:48.270Z,18.63
2022-11-28T23:07:34.170Z,20.58
2022-11-28T23:10:21.123Z,21.13
2022-11-28T23:13:06.911Z,20.80
2022-11-28T23:15:52.997Z,19.48
2022-11-28T23:18:39.133Z,19.23
2022-11-28T23:21:26.857Z,19.00
2022-11-28T23:24:21.875Z,19.27
2022-11-28T23:27:07.717Z,18.92
2022-11-28T23:29:53.475Z,18.35
2022-11-28T23:32:39.237Z,18.13
2022-11-28T23:35:25.549Z,17.75
2022-11-28T23:38:11.454Z,17.63
2022-11-28T23:40:57.539Z,17.98
2022-11-28T23:46:48.456Z,17.50
2022-11-28T23:49:34.816Z,19.13
2022-11-28T23:52:20.637Z,17.80
2022-11-28T23:55:07.000Z,17.05
2022-11-28T23:57:54.301Z,17.10
